sensor_id;sensor_type;location;lat;lon;timestamp;P1;durP1;ratioP1;P2;durP2;ratioP2
16039;SDS011;8124;48.634;8.120;2023-12-22T00:02:51;42.92;;;33.92;;
16039;SDS011;8124;48.634;8.120;2023-12-22T00:07:54;42.95;;;34.50;;
16039;SDS011;8124;48.634;8.120;2023-12-22T00:12:58;42.70;;;34.40;;
16039;SDS011;8124;48.634;8.120;2023-12-22T00:18:01;40.42;;;33.35;;
16039;SDS011;8124;48.634;8.120;2023-12-22T00:23:04;43.03;;;34.22;;
16039;SDS011;8124;48.634;8.120;2023-12-22T00:28:08;41.22;;;33.72;;
16039;SDS011;8124;48.634;8.120;2023-12-22T00:33:11;44.35;;;34.05;;
16039;SDS011;8124;48.634;8.120;2023-12-22T00:38:14;39.85;;;34.40;;
16039;SDS011;8124;48.634;8.120;2023-12-22T00:43:19;40.40;;;34.22;;
16039;SDS011;8124;48.634;8.120;2023-12-22T00:48:22;41.60;;;33.80;;
16039;SDS011;8124;48.634;8.120;2023-12-22T00:53:25;41.03;;;33.50;;
16039;SDS011;8124;48.634;8.120;2023-12-22T00:58:29;42.17;;;33.55;;
16039;SDS011;8124;48.634;8.120;2023-12-22T01:03:32;41.53;;;34.42;;
16039;SDS011;8124;48.634;8.120;2023-12-22T01:08:36;41.15;;;35.00;;
16039;SDS011;8124;48.634;8.120;2023-12-22T01:13:40;41.25;;;35.05;;
16039;SDS011;8124;48.634;8.120;2023-12-22T01:18:43;42.22;;;35.35;;
16039;SDS011;8124;48.634;8.120;2023-12-22T01:23:46;40.75;;;34.25;;
16039;SDS011;8124;48.634;8.120;2023-12-22T01:28:50;43.80;;;36.20;;
16039;SDS011;8124;48.634;8.120;2023-12-22T01:33:53;39.10;;;33.72;;
16039;SDS011;8124;48.634;8.120;2023-12-22T01:38:56;39.97;;;33.85;;
16039;SDS011;8124;48.634;8.120;2023-12-22T01:44:01;41.65;;;34.00;;
16039;SDS011;8124;48.634;8.120;2023-12-22T01:49:04;38.70;;;33.63;;
16039;SDS011;8124;48.634;8.120;2023-12-22T01:54:08;41.30;;;33.35;;
16039;SDS011;8124;48.634;8.120;2023-12-22T01:59:14;38.45;;;33.40;;
16039;SDS011;8124;48.634;8.120;2023-12-22T02:04:17;44.70;;;34.22;;
16039;SDS011;8124;48.634;8.120;2023-12-22T02:09:20;41.72;;;33.38;;
16039;SDS011;8124;48.634;8.120;2023-12-22T02:14:24;40.15;;;33.45;;
16039;SDS011;8124;48.634;8.120;2023-12-22T02:19:32;40.88;;;33.35;;
16039;SDS011;8124;48.634;8.120;2023-12-22T02:24:45;40.70;;;33.20;;
16039;SDS011;8124;48.634;8.120;2023-12-22T02:29:48;40.20;;;33.75;;
16039;SDS011;8124;48.634;8.120;2023-12-22T02:34:55;38.25;;;33.40;;
16039;SDS011;8124;48.634;8.120;2023-12-22T02:40:00;40.28;;;33.50;;
16039;SDS011;8124;48.634;8.120;2023-12-22T02:45:05;41.13;;;33.72;;
16039;SDS011;8124;48.634;8.120;2023-12-22T02:50:09;44.08;;;33.78;;
16039;SDS011;8124;48.634;8.120;2023-12-22T02:55:13;39.28;;;33.65;;
16039;SDS011;8124;48.634;8.120;2023-12-22T03:00:17;43.33;;;33.63;;
16039;SDS011;8124;48.634;8.120;2023-12-22T03:05:20;41.58;;;33.80;;
16039;SDS011;8124;48.634;8.120;2023-12-22T03:10:24;39.67;;;33.95;;
16039;SDS011;8124;48.634;8.120;2023-12-22T03:15:27;39.55;;;33.60;;
16039;SDS011;8124;48.634;8.120;2023-12-22T03:20:30;45.28;;;33.50;;
16039;SDS011;8124;48.634;8.120;2023-12-22T03:25:35;42.38;;;35.90;;
16039;SDS011;8124;48.634;8.120;2023-12-22T03:30:38;47.33;;;34.83;;
16039;SDS011;8124;48.634;8.120;2023-12-22T03:35:41;42.60;;;34.17;;
16039;SDS011;8124;48.634;8.120;2023-12-22T03:40:45;39.88;;;33.65;;
16039;SDS011;8124;48.634;8.120;2023-12-22T03:45:48;41.92;;;34.05;;
16039;SDS011;8124;48.634;8.120;2023-12-22T03:50:51;39.08;;;33.60;;
16039;SDS011;8124;48.634;8.120;2023-12-22T03:55:55;40.58;;;34.00;;
16039;SDS011;8124;48.634;8.120;2023-12-22T04:00:58;44.08;;;33.95;;
16039;SDS011;8124;48.634;8.120;2023-12-22T04:06:02;39.70;;;33.10;;
16039;SDS011;8124;48.634;8.120;2023-12-22T04:11:07;39.70;;;33.50;;
16039;SDS011;8124;48.634;8.120;2023-12-22T04:16:10;39.78;;;33.42;;
16039;SDS011;8124;48.634;8.120;2023-12-22T04:21:12;41.55;;;33.22;;
16039;SDS011;8124;48.634;8.120;2023-12-22T04:26:17;41.88;;;33.83;;
16039;SDS011;8124;48.634;8.120;2023-12-22T04:31:20;43.42;;;34.15;;
16039;SDS011;8124;48.634;8.120;2023-12-22T04:36:23;44.15;;;34.17;;
16039;SDS011;8124;48.634;8.120;2023-12-22T04:41:27;42.88;;;34.28;;
16039;SDS011;8124;48.634;8.120;2023-12-22T04:46:30;43.13;;;34.42;;
16039;SDS011;8124;48.634;8.120;2023-12-22T04:51:33;44.45;;;34.10;;
16039;SDS011;8124;48.634;8.120;2023-12-22T04:56:37;44.13;;;34.17;;
16039;SDS011;8124;48.634;8.120;2023-12-22T05:01:40;42.80;;;33.78;;
16039;SDS011;8124;48.634;8.120;2023-12-22T05:06:44;44.85;;;34.40;;
16039;SDS011;8124;48.634;8.120;2023-12-22T05:11:48;47.50;;;34.75;;
16039;SDS011;8124;48.634;8.120;2023-12-22T05:16:52;46.22;;;34.85;;
16039;SDS011;8124;48.634;8.120;2023-12-22T05:21:57;41.50;;;33.72;;
16039;SDS011;8124;48.634;8.120;2023-12-22T05:27:03;41.78;;;34.88;;
16039;SDS011;8124;48.634;8.120;2023-12-22T05:32:06;41.30;;;34.25;;
16039;SDS011;8124;48.634;8.120;2023-12-22T05:37:09;44.67;;;33.75;;
16039;SDS011;8124;48.634;8.120;2023-12-22T05:42:14;43.38;;;34.85;;
16039;SDS011;8124;48.634;8.120;2023-12-22T05:47:17;45.70;;;34.70;;
16039;SDS011;8124;48.634;8.120;2023-12-22T05:52:20;46.67;;;34.63;;
16039;SDS011;8124;48.634;8.120;2023-12-22T05:57:25;42.13;;;33.83;;
16039;SDS011;8124;48.634;8.120;2023-12-22T06:02:28;43.22;;;34.90;;
16039;SDS011;8124;48.634;8.120;2023-12-22T06:07:31;43.20;;;34.15;;
16039;SDS011;8124;48.634;8.120;2023-12-22T06:12:36;48.50;;;34.63;;
16039;SDS011;8124;48.634;8.120;2023-12-22T06:17:39;45.22;;;34.67;;
16039;SDS011;8124;48.634;8.120;2023-12-22T06:22:42;47.30;;;37.00;;
16039;SDS011;8124;48.634;8.120;2023-12-22T06:27:46;44.78;;;34.30;;
16039;SDS011;8124;48.634;8.120;2023-12-22T06:32:50;42.90;;;34.22;;
16039;SDS011;8124;48.634;8.120;2023-12-22T06:37:53;42.80;;;33.85;;
16039;SDS011;8124;48.634;8.120;2023-12-22T06:42:58;51.03;;;38.22;;
16039;SDS011;8124;48.634;8.120;2023-12-22T06:48:01;45.88;;;34.83;;
16039;SDS011;8124;48.634;8.120;2023-12-22T06:53:04;46.53;;;35.30;;
16039;SDS011;8124;48.634;8.120;2023-12-22T06:58:23;43.38;;;34.22;;
16039;SDS011;8124;48.634;8.120;2023-12-22T07:03:27;41.20;;;34.05;;
16039;SDS011;8124;48.634;8.120;2023-12-22T07:08:35;43.85;;;34.53;;
16039;SDS011;8124;48.634;8.120;2023-12-22T07:13:39;40.65;;;33.95;;
16039;SDS011;8124;48.634;8.120;2023-12-22T07:18:44;43.65;;;34.22;;
16039;SDS011;8124;48.634;8.120;2023-12-22T07:23:47;45.75;;;35.03;;
16039;SDS011;8124;48.634;8.120;2023-12-22T07:28:52;41.35;;;34.47;;
16039;SDS011;8124;48.634;8.120;2023-12-22T07:33:55;46.55;;;34.65;;
16039;SDS011;8124;48.634;8.120;2023-12-22T07:38:59;44.47;;;35.42;;
16039;SDS011;8124;48.634;8.120;2023-12-22T07:44:06;44.90;;;34.45;;
16039;SDS011;8124;48.634;8.120;2023-12-22T07:49:09;45.47;;;34.15;;
16039;SDS011;8124;48.634;8.120;2023-12-22T07:54:16;47.33;;;34.50;;
16039;SDS011;8124;48.634;8.120;2023-12-22T07:59:21;44.72;;;36.38;;
16039;SDS011;8124;48.634;8.120;2023-12-22T08:04:32;43.40;;;34.47;;
16039;SDS011;8124;48.634;8.120;2023-12-22T08:09:37;48.88;;;34.88;;
16039;SDS011;8124;48.634;8.120;2023-12-22T08:14:42;47.25;;;36.72;;
16039;SDS011;8124;48.634;8.120;2023-12-22T08:19:45;43.70;;;34.30;;
16039;SDS011;8124;48.634;8.120;2023-12-22T08:24:54;44.28;;;34.13;;
16039;SDS011;8124;48.634;8.120;2023-12-22T08:29:59;45.28;;;34.67;;
16039;SDS011;8124;48.634;8.120;2023-12-22T08:35:05;44.13;;;34.53;;
16039;SDS011;8124;48.634;8.120;2023-12-22T08:40:10;50.13;;;35.17;;
16039;SDS011;8124;48.634;8.120;2023-12-22T08:52:36;44.95;;;35.20;;
16039;SDS011;8124;48.634;8.120;2023-12-22T09:03:23;45.40;;;34.72;;
16039;SDS011;8124;48.634;8.120;2023-12-22T09:08:33;42.83;;;34.45;;
16039;SDS011;8124;48.634;8.120;2023-12-22T09:13:36;47.92;;;34.33;;
16039;SDS011;8124;48.634;8.120;2023-12-22T09:18:49;49.38;;;34.22;;
16039;SDS011;8124;48.634;8.120;2023-12-22T09:24:36;48.00;;;34.78;;
16039;SDS011;8124;48.634;8.120;2023-12-22T09:30:40;49.40;;;34.38;;
16039;SDS011;8124;48.634;8.120;2023-12-22T09:35:48;45.28;;;34.70;;
16039;SDS011;8124;48.634;8.120;2023-12-22T09:40:53;46.55;;;35.67;;
16039;SDS011;8124;48.634;8.120;2023-12-22T09:45:57;49.30;;;34.50;;
16039;SDS011;8124;48.634;8.120;2023-12-22T09:51:06;46.25;;;35.00;;
16039;SDS011;8124;48.634;8.120;2023-12-22T09:56:10;46.85;;;34.88;;
16039;SDS011;8124;48.634;8.120;2023-12-22T10:01:14;50.97;;;34.65;;
16039;SDS011;8124;48.634;8.120;2023-12-22T10:06:19;44.50;;;34.85;;
16039;SDS011;8124;48.634;8.120;2023-12-22T10:11:23;47.75;;;34.83;;
16039;SDS011;8124;48.634;8.120;2023-12-22T10:16:28;46.65;;;35.50;;
16039;SDS011;8124;48.634;8.120;2023-12-22T10:21:33;47.50;;;35.30;;
16039;SDS011;8124;48.634;8.120;2023-12-22T10:26:36;41.85;;;34.55;;
16039;SDS011;8124;48.634;8.120;2023-12-22T10:31:40;51.22;;;35.53;;
16039;SDS011;8124;48.634;8.120;2023-12-22T10:36:44;46.30;;;34.40;;
16039;SDS011;8124;48.634;8.120;2023-12-22T10:41:48;49.90;;;35.90;;
16039;SDS011;8124;48.634;8.120;2023-12-22T10:46:51;46.85;;;34.80;;
16039;SDS011;8124;48.634;8.120;2023-12-22T10:51:56;42.33;;;34.17;;
16039;SDS011;8124;48.634;8.120;2023-12-22T10:56:59;44.90;;;34.35;;
16039;SDS011;8124;48.634;8.120;2023-12-22T11:02:02;43.40;;;34.28;;
16039;SDS011;8124;48.634;8.120;2023-12-22T11:07:08;42.50;;;34.67;;
16039;SDS011;8124;48.634;8.120;2023-12-22T11:12:13;42.63;;;34.40;;
16039;SDS011;8124;48.634;8.120;2023-12-22T11:17:18;48.90;;;35.08;;
16039;SDS011;8124;48.634;8.120;2023-12-22T11:22:24;47.67;;;35.30;;
16039;SDS011;8124;48.634;8.120;2023-12-22T11:27:28;43.13;;;34.47;;
16039;SDS011;8124;48.634;8.120;2023-12-22T11:32:31;45.13;;;34.78;;
16039;SDS011;8124;48.634;8.120;2023-12-22T11:37:38;41.42;;;34.13;;
16039;SDS011;8124;48.634;8.120;2023-12-22T11:42:43;41.30;;;34.30;;
16039;SDS011;8124;48.634;8.120;2023-12-22T11:47:53;43.45;;;34.83;;
16039;SDS011;8124;48.634;8.120;2023-12-22T11:52:57;42.83;;;34.45;;
16039;SDS011;8124;48.634;8.120;2023-12-22T11:58:32;42.10;;;33.90;;
16039;SDS011;8124;48.634;8.120;2023-12-22T12:03:37;42.17;;;34.03;;
16039;SDS011;8124;48.634;8.120;2023-12-22T12:08:44;44.00;;;33.88;;
16039;SDS011;8124;48.634;8.120;2023-12-22T12:13:47;40.70;;;34.17;;
16039;SDS011;8124;48.634;8.120;2023-12-22T12:18:51;44.35;;;34.38;;
16039;SDS011;8124;48.634;8.120;2023-12-22T12:23:56;41.38;;;34.63;;
16039;SDS011;8124;48.634;8.120;2023-12-22T12:29:01;40.28;;;33.90;;
16039;SDS011;8124;48.634;8.120;2023-12-22T12:34:06;38.42;;;33.53;;
16039;SDS011;8124;48.634;8.120;2023-12-22T12:39:16;40.10;;;33.78;;
16039;SDS011;8124;48.634;8.120;2023-12-22T12:44:26;38.53;;;33.42;;
16039;SDS011;8124;48.634;8.120;2023-12-22T12:49:30;39.42;;;33.45;;
16039;SDS011;8124;48.634;8.120;2023-12-22T12:54:34;38.83;;;34.15;;
16039;SDS011;8124;48.634;8.120;2023-12-22T12:59:37;37.78;;;33.22;;
16039;SDS011;8124;48.634;8.120;2023-12-22T13:04:41;39.75;;;33.88;;
16039;SDS011;8124;48.634;8.120;2023-12-22T13:09:45;39.22;;;33.25;;
16039;SDS011;8124;48.634;8.120;2023-12-22T13:14:49;38.38;;;33.78;;
16039;SDS011;8124;48.634;8.120;2023-12-22T13:19:52;40.10;;;33.53;;
16039;SDS011;8124;48.634;8.120;2023-12-22T13:24:58;39.10;;;33.72;;
16039;SDS011;8124;48.634;8.120;2023-12-22T13:30:07;37.78;;;33.35;;
16039;SDS011;8124;48.634;8.120;2023-12-22T13:35:11;38.40;;;33.50;;
16039;SDS011;8124;48.634;8.120;2023-12-22T13:40:16;39.67;;;33.72;;
16039;SDS011;8124;48.634;8.120;2023-12-22T13:45:19;38.50;;;33.72;;
16039;SDS011;8124;48.634;8.120;2023-12-22T13:50:22;41.28;;;33.40;;
16039;SDS011;8124;48.634;8.120;2023-12-22T13:55:27;39.08;;;33.85;;
16039;SDS011;8124;48.634;8.120;2023-12-22T14:00:31;37.50;;;32.88;;
16039;SDS011;8124;48.634;8.120;2023-12-22T14:05:34;39.03;;;33.60;;
16039;SDS011;8124;48.634;8.120;2023-12-22T14:10:45;38.20;;;33.22;;
16039;SDS011;8124;48.634;8.120;2023-12-22T14:15:50;38.05;;;33.20;;
16039;SDS011;8124;48.634;8.120;2023-12-22T14:20:55;41.40;;;35.28;;
16039;SDS011;8124;48.634;8.120;2023-12-22T14:26:01;38.10;;;33.63;;
16039;SDS011;8124;48.634;8.120;2023-12-22T14:31:05;38.72;;;34.15;;
16039;SDS011;8124;48.634;8.120;2023-12-22T14:36:08;42.00;;;34.45;;
16039;SDS011;8124;48.634;8.120;2023-12-22T14:41:12;38.38;;;33.85;;
16039;SDS011;8124;48.634;8.120;2023-12-22T14:46:15;38.90;;;33.90;;
16039;SDS011;8124;48.634;8.120;2023-12-22T14:51:18;38.33;;;33.40;;
16039;SDS011;8124;48.634;8.120;2023-12-22T14:56:22;38.00;;;33.55;;
16039;SDS011;8124;48.634;8.120;2023-12-22T15:01:25;38.33;;;33.78;;
16039;SDS011;8124;48.634;8.120;2023-12-22T15:06:29;40.53;;;34.03;;
16039;SDS011;8124;48.634;8.120;2023-12-22T15:11:33;38.78;;;33.72;;
16039;SDS011;8124;48.634;8.120;2023-12-22T15:16:42;38.72;;;33.83;;
16039;SDS011;8124;48.634;8.120;2023-12-22T15:21:48;38.78;;;33.83;;
16039;SDS011;8124;48.634;8.120;2023-12-22T15:27:10;39.00;;;33.97;;
16039;SDS011;8124;48.634;8.120;2023-12-22T15:32:15;38.35;;;33.95;;
16039;SDS011;8124;48.634;8.120;2023-12-22T15:37:32;38.92;;;33.85;;
16039;SDS011;8124;48.634;8.120;2023-12-22T15:42:38;39.05;;;33.95;;
16039;SDS011;8124;48.634;8.120;2023-12-22T15:47:44;38.65;;;33.95;;
16039;SDS011;8124;48.634;8.120;2023-12-22T15:52:53;40.20;;;34.10;;
16039;SDS011;8124;48.634;8.120;2023-12-22T15:58:02;39.75;;;35.40;;
16039;SDS011;8124;48.634;8.120;2023-12-22T16:08:44;39.80;;;33.92;;
16039;SDS011;8124;48.634;8.120;2023-12-22T16:13:52;39.10;;;33.83;;
16039;SDS011;8124;48.634;8.120;2023-12-22T16:19:00;42.95;;;34.92;;
16039;SDS011;8124;48.634;8.120;2023-12-22T16:24:03;40.83;;;34.88;;
16039;SDS011;8124;48.634;8.120;2023-12-22T16:29:07;41.72;;;34.88;;
16039;SDS011;8124;48.634;8.120;2023-12-22T16:34:10;39.90;;;34.20;;
16039;SDS011;8124;48.634;8.120;2023-12-22T16:39:13;39.22;;;34.17;;
16039;SDS011;8124;48.634;8.120;2023-12-22T16:44:18;39.15;;;34.83;;
16039;SDS011;8124;48.634;8.120;2023-12-22T16:49:23;39.70;;;34.78;;
16039;SDS011;8124;48.634;8.120;2023-12-22T16:54:28;39.03;;;34.13;;
16039;SDS011;8124;48.634;8.120;2023-12-22T16:59:32;39.33;;;34.35;;
16039;SDS011;8124;48.634;8.120;2023-12-22T17:04:35;39.03;;;34.33;;
16039;SDS011;8124;48.634;8.120;2023-12-22T17:09:38;41.40;;;34.78;;
16039;SDS011;8124;48.634;8.120;2023-12-22T17:14:43;40.50;;;35.97;;
16039;SDS011;8124;48.634;8.120;2023-12-22T17:19:46;39.22;;;34.40;;
16039;SDS011;8124;48.634;8.120;2023-12-22T17:24:49;40.00;;;33.95;;
16039;SDS011;8124;48.634;8.120;2023-12-22T17:29:53;39.25;;;34.53;;
16039;SDS011;8124;48.634;8.120;2023-12-22T17:34:56;39.65;;;34.28;;
16039;SDS011;8124;48.634;8.120;2023-12-22T17:39:59;38.50;;;34.03;;
16039;SDS011;8124;48.634;8.120;2023-12-22T17:45:04;39.45;;;34.33;;
16039;SDS011;8124;48.634;8.120;2023-12-22T17:50:08;39.47;;;33.78;;
16039;SDS011;8124;48.634;8.120;2023-12-22T17:55:11;40.50;;;34.45;;
16039;SDS011;8124;48.634;8.120;2023-12-22T18:00:16;40.00;;;34.33;;
16039;SDS011;8124;48.634;8.120;2023-12-22T18:05:19;39.85;;;34.38;;
16039;SDS011;8124;48.634;8.120;2023-12-22T18:10:23;39.67;;;34.97;;
16039;SDS011;8124;48.634;8.120;2023-12-22T18:15:27;40.75;;;34.40;;
16039;SDS011;8124;48.634;8.120;2023-12-22T18:20:30;41.15;;;34.70;;
16039;SDS011;8124;48.634;8.120;2023-12-22T18:25:33;39.88;;;34.47;;
16039;SDS011;8124;48.634;8.120;2023-12-22T18:30:40;38.83;;;34.00;;
16039;SDS011;8124;48.634;8.120;2023-12-22T18:35:43;41.92;;;34.85;;
16039;SDS011;8124;48.634;8.120;2023-12-22T18:40:46;40.92;;;35.00;;
16039;SDS011;8124;48.634;8.120;2023-12-22T18:45:51;40.13;;;34.25;;
16039;SDS011;8124;48.634;8.120;2023-12-22T18:50:54;40.83;;;34.42;;
16039;SDS011;8124;48.634;8.120;2023-12-22T18:55:57;40.03;;;34.03;;
16039;SDS011;8124;48.634;8.120;2023-12-22T19:01:01;39.80;;;34.17;;
16039;SDS011;8124;48.634;8.120;2023-12-22T19:06:05;40.20;;;34.80;;
16039;SDS011;8124;48.634;8.120;2023-12-22T19:11:08;40.80;;;34.30;;
16039;SDS011;8124;48.634;8.120;2023-12-22T19:16:16;38.92;;;33.88;;
16039;SDS011;8124;48.634;8.120;2023-12-22T19:21:20;41.03;;;34.28;;
16039;SDS011;8124;48.634;8.120;2023-12-22T19:26:23;42.50;;;34.42;;
16039;SDS011;8124;48.634;8.120;2023-12-22T19:31:27;44.55;;;34.38;;
16039;SDS011;8124;48.634;8.120;2023-12-22T19:36:31;41.38;;;34.22;;
16039;SDS011;8124;48.634;8.120;2023-12-22T19:41:34;39.00;;;33.58;;
16039;SDS011;8124;48.634;8.120;2023-12-22T19:46:38;39.13;;;33.65;;
16039;SDS011;8124;48.634;8.120;2023-12-22T19:51:42;39.08;;;33.67;;
16039;SDS011;8124;48.634;8.120;2023-12-22T19:56:45;39.10;;;34.25;;
16039;SDS011;8124;48.634;8.120;2023-12-22T20:01:49;39.20;;;34.33;;
16039;SDS011;8124;48.634;8.120;2023-12-22T20:06:54;39.50;;;33.97;;
16039;SDS011;8124;48.634;8.120;2023-12-22T20:11:58;39.40;;;33.70;;
16039;SDS011;8124;48.634;8.120;2023-12-22T20:17:03;38.65;;;34.05;;
16039;SDS011;8124;48.634;8.120;2023-12-22T20:22:07;39.33;;;34.65;;
16039;SDS011;8124;48.634;8.120;2023-12-22T20:27:10;38.60;;;33.60;;
16039;SDS011;8124;48.634;8.120;2023-12-22T20:32:14;38.50;;;33.63;;
16039;SDS011;8124;48.634;8.120;2023-12-22T20:37:18;40.38;;;35.22;;
16039;SDS011;8124;48.634;8.120;2023-12-22T20:42:21;40.60;;;34.25;;
16039;SDS011;8124;48.634;8.120;2023-12-22T20:47:25;38.92;;;33.92;;
16039;SDS011;8124;48.634;8.120;2023-12-22T20:52:28;39.75;;;34.97;;
16039;SDS011;8124;48.634;8.120;2023-12-22T20:57:32;39.60;;;34.50;;
16039;SDS011;8124;48.634;8.120;2023-12-22T21:02:37;39.60;;;34.00;;
16039;SDS011;8124;48.634;8.120;2023-12-22T21:07:41;42.63;;;37.43;;
16039;SDS011;8124;48.634;8.120;2023-12-22T21:12:44;38.03;;;33.42;;
16039;SDS011;8124;48.634;8.120;2023-12-22T21:17:49;43.47;;;34.38;;
16039;SDS011;8124;48.634;8.120;2023-12-22T21:22:52;39.65;;;33.85;;
16039;SDS011;8124;48.634;8.120;2023-12-22T21:27:58;39.05;;;34.25;;
16039;SDS011;8124;48.634;8.120;2023-12-22T21:33:02;39.38;;;33.78;;
16039;SDS011;8124;48.634;8.120;2023-12-22T21:38:06;39.13;;;33.47;;
16039;SDS011;8124;48.634;8.120;2023-12-22T21:43:09;40.55;;;33.78;;
16039;SDS011;8124;48.634;8.120;2023-12-22T21:48:14;38.83;;;33.65;;
16039;SDS011;8124;48.634;8.120;2023-12-22T21:53:17;39.50;;;34.33;;
16039;SDS011;8124;48.634;8.120;2023-12-22T21:58:20;38.85;;;33.38;;
16039;SDS011;8124;48.634;8.120;2023-12-22T22:03:24;38.13;;;33.35;;
16039;SDS011;8124;48.634;8.120;2023-12-22T22:08:29;39.55;;;34.55;;
16039;SDS011;8124;48.634;8.120;2023-12-22T22:13:32;39.80;;;33.65;;
16039;SDS011;8124;48.634;8.120;2023-12-22T22:18:37;39.17;;;33.72;;
16039;SDS011;8124;48.634;8.120;2023-12-22T22:23:40;39.88;;;33.90;;
16039;SDS011;8124;48.634;8.120;2023-12-22T22:28:43;40.15;;;33.30;;
16039;SDS011;8124;48.634;8.120;2023-12-22T22:33:48;41.60;;;33.95;;
16039;SDS011;8124;48.634;8.120;2023-12-22T22:38:51;38.80;;;33.90;;
16039;SDS011;8124;48.634;8.120;2023-12-22T22:43:54;38.42;;;33.10;;
16039;SDS011;8124;48.634;8.120;2023-12-22T22:48:59;40.35;;;33.58;;
16039;SDS011;8124;48.634;8.120;2023-12-22T22:54:02;38.17;;;33.40;;
16039;SDS011;8124;48.634;8.120;2023-12-22T22:59:06;40.10;;;33.22;;
16039;SDS011;8124;48.634;8.120;2023-12-22T23:04:10;39.60;;;33.35;;
16039;SDS011;8124;48.634;8.120;2023-12-22T23:09:14;39.88;;;33.88;;
16039;SDS011;8124;48.634;8.120;2023-12-22T23:14:17;38.10;;;33.55;;
16039;SDS011;8124;48.634;8.120;2023-12-22T23:19:21;40.45;;;33.58;;
16039;SDS011;8124;48.634;8.120;2023-12-22T23:24:25;38.22;;;33.53;;
16039;SDS011;8124;48.634;8.120;2023-12-22T23:29:28;40.45;;;33.63;;
16039;SDS011;8124;48.634;8.120;2023-12-22T23:34:32;38.13;;;32.72;;
16039;SDS011;8124;48.634;8.120;2023-12-22T23:39:35;39.05;;;34.28;;
16039;SDS011;8124;48.634;8.120;2023-12-22T23:44:39;40.53;;;33.35;;
16039;SDS011;8124;48.634;8.120;2023-12-22T23:49:44;39.53;;;33.15;;
16039;SDS011;8124;48.634;8.120;2023-12-22T23:54:47;40.45;;;33.58;;
16039;SDS011;8124;48.634;8.120;2023-12-22T23:59:50;39.20;;;33.22;;
